createdAt,value
2023-12-10T00:02:24.348Z,99685.72
2023-12-10T00:04:56.405Z,99689.19
2023-12-10T00:07:28.539Z,99678.69
2023-12-10T00:10:00.649Z,99685.72
2023-12-10T00:12:34.669Z,99689.28
2023-12-10T00:15:07.430Z,99693.66
2023-12-10T00:17:39.563Z,99690.19
2023-12-10T00:20:11.959Z,99692.81
2023-12-10T00:22:45.728Z,99701.59
2023-12-10T00:25:17.709Z,99697.25
2023-12-10T00:27:49.727Z,99699.88
2023-12-10T00:30:21.786Z,99719.13
2023-12-10T00:32:54.605Z,99709.56
2023-12-10T00:35:26.637Z,99711.28
2023-12-10T00:37:58.726Z,99725.31
2023-12-10T00:40:30.734Z,99722.69
2023-12-10T00:43:02.810Z,99734.91
2023-12-10T00:45:34.895Z,99722.69
2023-12-10T00:48:07.518Z,99728.72
2023-12-10T00:50:39.807Z,99731.28
2023-12-10T00:53:11.855Z,99741.78
2023-12-10T00:55:45.593Z,99740.03
2023-12-10T00:58:17.627Z,99754.88
2023-12-10T01:00:49.690Z,99746.13
2023-12-10T01:03:21.900Z,99746.13
2023-12-10T01:05:53.992Z,99756.63
2023-12-10T01:08:26.057Z,99758.34
2023-12-10T01:11:01.951Z,99753.09
2023-12-10T01:13:34.019Z,99763.50
2023-12-10T01:16:06.541Z,99767.81
2023-12-10T01:18:38.921Z,99767.88
2023-12-10T01:21:11.419Z,99765.25
2023-12-10T01:23:43.527Z,99749.44
2023-12-10T01:26:15.780Z,99757.31
2023-12-10T01:28:47.868Z,99766.91
2023-12-10T01:31:20.467Z,99761.66
2023-12-10T01:33:52.741Z,99777.47
2023-12-10T01:36:25.317Z,99781.88
2023-12-10T01:38:57.763Z,99772.22
2023-12-10T01:41:30.198Z,99780.19
2023-12-10T01:44:02.206Z,99775.78
2023-12-10T01:46:34.450Z,99787.22
2023-12-10T01:49:09.468Z,99794.19
2023-12-10T01:51:44.658Z,99796.66
2023-12-10T01:54:24.103Z,99793.94
2023-12-10T01:57:06.160Z,99807.09
2023-12-10T01:59:39.453Z,99826.25
2023-12-10T02:02:14.057Z,99806.94
2023-12-10T02:04:46.213Z,99828.72
2023-12-10T02:07:18.547Z,99826.88
2023-12-10T02:09:51.892Z,99826.81
2023-12-10T02:12:24.963Z,99813.59
2023-12-10T02:14:57.005Z,99830.16
2023-12-10T02:17:29.639Z,99824.84
2023-12-10T02:20:01.742Z,99831.78
2023-12-10T02:22:34.460Z,99809.91
2023-12-10T02:25:09.597Z,99819.44
2023-12-10T02:27:42.486Z,99815.03
2023-12-10T02:30:15.026Z,99822.06
2023-12-10T02:32:47.255Z,99829.03
2023-12-10T02:35:19.541Z,99833.44
2023-12-10T02:37:51.844Z,99836.06
2023-12-10T02:40:23.981Z,99827.28
2023-12-10T02:42:56.049Z,99846.50
2023-12-10T02:45:28.136Z,99836.94
2023-12-10T02:48:00.277Z,99838.56
2023-12-10T02:50:32.340Z,99832.56
2023-12-10T02:53:04.373Z,99844.00
2023-12-10T02:55:36.381Z,99840.53
2023-12-10T02:58:08.427Z,99849.31
2023-12-10T03:00:40.723Z,99852.88
2023-12-10T03:03:12.838Z,99850.13
2023-12-10T03:05:44.922Z,99850.25
2023-12-10T03:08:16.907Z,99849.38
2023-12-10T03:10:51.469Z,99855.50
2023-12-10T03:13:23.446Z,99870.41
2023-12-10T03:15:55.875Z,99872.19
2023-12-10T03:18:30.364Z,99862.53
2023-12-10T03:21:02.446Z,99859.91
2023-12-10T03:23:34.424Z,99875.75
2023-12-10T03:26:06.614Z,99871.34
2023-12-10T03:28:38.685Z,99867.00
2023-12-10T03:31:10.825Z,99879.28
2023-12-10T03:33:42.940Z,99888.88
2023-12-10T03:36:16.795Z,99894.16
2023-12-10T03:38:49.104Z,99881.00
2023-12-10T03:41:21.101Z,99886.28
2023-12-10T03:43:53.179Z,99883.56
2023-12-10T03:46:25.213Z,99900.31
2023-12-10T03:48:57.392Z,99885.53
2023-12-10T03:51:32.318Z,99898.53
2023-12-10T03:54:05.287Z,99881.13
2023-12-10T03:56:37.301Z,99891.66
2023-12-10T03:59:09.501Z,99906.53
2023-12-10T04:01:44.901Z,99888.22
2023-12-10T04:04:16.954Z,99890.88
2023-12-10T04:06:49.059Z,99904.06
2023-12-10T04:09:22.029Z,99898.81
2023-12-10T04:12:06.930Z,99918.88
2023-12-10T04:14:38.887Z,99911.94
2023-12-10T04:17:10.871Z,99920.69
2023-12-10T04:19:43.767Z,99928.59
2023-12-10T04:22:16.078Z,99924.22
2023-12-10T04:24:48.102Z,99935.63
2023-12-10T04:27:20.268Z,99932.16
2023-12-10T04:29:53.097Z,99936.50
2023-12-10T04:32:25.164Z,99941.75
2023-12-10T04:34:57.317Z,99953.19
2023-12-10T04:37:29.328Z,99932.81
2023-12-10T04:40:01.747Z,99959.28
2023-12-10T04:42:33.828Z,99953.19
2023-12-10T04:45:10.052Z,99970.78
2023-12-10T04:47:42.138Z,99988.28
2023-12-10T04:50:14.416Z,99989.25
2023-12-10T04:52:46.405Z,99969.06
2023-12-10T04:55:18.417Z,99984.88
2023-12-10T04:57:50.638Z,100007.66
2023-12-10T05:00:22.785Z,99990.13
2023-12-10T05:02:54.810Z,99998.06
2023-12-10T05:05:26.977Z,99996.31
2023-12-10T05:07:59.042Z,100019.94
2023-12-10T05:10:33.041Z,100026.09
2023-12-10T05:13:05.336Z,100041.84
2023-12-10T05:15:37.396Z,100033.06
2023-12-10T05:18:09.501Z,100013.81
2023-12-10T05:20:41.568Z,100029.47
2023-12-10T05:23:13.598Z,100057.53
2023-12-10T05:25:45.839Z,100039.22
2023-12-10T05:28:17.960Z,100039.22
2023-12-10T05:30:50.056Z,100044.47
2023-12-10T05:33:22.188Z,100049.72
2023-12-10T05:35:54.402Z,100048.81
2023-12-10T05:38:27.078Z,100073.41
2023-12-10T05:40:59.125Z,100048.75
2023-12-10T05:43:31.073Z,100085.56
2023-12-10T05:46:03.161Z,100095.19
2023-12-10T05:48:35.461Z,100085.56
2023-12-10T05:51:07.770Z,100075.16
2023-12-10T05:53:39.784Z,100090.03
2023-12-10T05:56:11.767Z,100095.28
2023-12-10T05:58:43.945Z,100092.66
2023-12-10T06:01:16.257Z,100105.00
2023-12-10T06:03:48.522Z,100117.16
2023-12-10T06:06:20.621Z,100105.78
2023-12-10T06:08:52.827Z,100119.78
2023-12-10T06:11:24.860Z,100123.31
2023-12-10T06:13:56.911Z,100114.41
2023-12-10T06:16:28.881Z,100130.28
2023-12-10T06:19:00.965Z,100147.81
2023-12-10T06:21:33.610Z,100140.84
2023-12-10T06:24:06.167Z,100144.31
2023-12-10T06:26:38.131Z,100161.00
2023-12-10T06:29:10.177Z,100149.56
2023-12-10T06:31:42.206Z,100155.69
2023-12-10T06:34:14.433Z,100164.41
2023-12-10T06:36:46.615Z,100193.28
2023-12-10T06:39:18.724Z,100192.44
2023-12-10T06:41:50.742Z,100203.84
2023-12-10T06:44:22.963Z,100193.34
2023-12-10T06:46:55.075Z,100210.88
2023-12-10T06:49:27.220Z,100203.84
2023-12-10T06:51:59.307Z,100210.88
2023-12-10T06:54:32.118Z,100227.47
2023-12-10T06:57:04.417Z,100233.63
2023-12-10T06:59:36.587Z,100228.38
2023-12-10T07:02:08.659Z,100239.75
2023-12-10T07:04:40.722Z,100242.41
2023-12-10T07:07:12.715Z,100239.75
2023-12-10T07:09:44.776Z,100239.75
2023-12-10T07:12:16.916Z,100242.25
2023-12-10T07:14:50.847Z,100252.88
2023-12-10T07:17:23.660Z,100247.50
2023-12-10T07:19:55.700Z,100258.97
2023-12-10T07:22:29.199Z,100266.75
2023-12-10T07:25:05.798Z,100271.06
2023-12-10T07:27:37.835Z,100273.75
2023-12-10T07:30:10.499Z,100274.63
2023-12-10T07:32:42.607Z,100287.78
2023-12-10T07:35:14.789Z,100299.16
2023-12-10T07:37:46.772Z,100301.69
2023-12-10T07:40:18.920Z,100317.44
2023-12-10T07:42:50.979Z,100305.97
2023-12-10T07:45:23.033Z,100307.75
2023-12-10T07:47:55.282Z,100317.34
2023-12-10T07:50:27.816Z,100325.16
2023-12-10T07:53:01.925Z,100329.53
2023-12-10T07:55:35.010Z,100352.31
2023-12-10T07:58:07.091Z,100367.22
2023-12-10T08:00:40.442Z,100361.13
2023-12-10T08:03:12.614Z,100357.56
2023-12-10T08:05:44.660Z,100352.38
2023-12-10T08:08:16.657Z,100354.19
2023-12-10T08:10:48.719Z,100354.09
2023-12-10T08:13:20.774Z,100365.50
2023-12-10T08:15:52.919Z,100365.50
2023-12-10T08:18:25.901Z,100382.13
2023-12-10T08:20:58.048Z,100381.16
2023-12-10T08:23:30.196Z,100394.38
2023-12-10T08:26:02.832Z,100387.38
2023-12-10T08:28:35.666Z,100404.88
2023-12-10T08:31:08.130Z,100397.88
2023-12-10T08:33:40.317Z,100402.31
2023-12-10T08:36:12.401Z,100399.56
2023-12-10T08:38:44.420Z,100407.50
2023-12-10T08:41:16.937Z,100406.59
2023-12-10T08:43:48.941Z,100413.63
2023-12-10T08:46:20.962Z,100421.50
2023-12-10T08:48:53.193Z,100417.13
2023-12-10T08:51:25.437Z,100409.41
2023-12-10T08:53:57.493Z,100408.38
2023-12-10T08:56:29.726Z,100429.50
2023-12-10T08:59:01.791Z,100432.91
2023-12-10T09:01:33.845Z,100436.63
2023-12-10T09:04:07.033Z,100441.88
2023-12-10T09:06:39.446Z,100441.75
2023-12-10T09:09:11.532Z,100440.91
2023-12-10T09:11:43.532Z,100432.16
2023-12-10T09:14:15.652Z,100443.53
2023-12-10T09:16:48.958Z,100453.22
2023-12-10T09:19:23.021Z,100453.22
2023-12-10T09:21:55.602Z,100458.47
2023-12-10T09:24:27.755Z,100463.81
2023-12-10T09:27:01.263Z,100452.50
2023-12-10T09:29:39.758Z,100462.97
2023-12-10T09:32:13.819Z,100466.41
2023-12-10T09:34:46.068Z,100465.63
2023-12-10T09:37:18.317Z,100461.34
2023-12-10T09:39:50.325Z,100458.78
2023-12-10T09:42:22.390Z,100459.69
2023-12-10T09:44:54.375Z,100462.31
2023-12-10T09:47:30.633Z,100458.56
2023-12-10T09:50:04.948Z,100469.31
2023-12-10T09:52:37.222Z,100453.47
2023-12-10T09:55:10.968Z,100464.03
2023-12-10T09:57:43.074Z,100461.44
2023-12-10T10:00:15.875Z,100452.06
2023-12-10T10:02:47.865Z,100446.81
2023-12-10T10:05:20.005Z,100453.03
2023-12-10T10:07:52.104Z,100457.63
2023-12-10T10:10:26.617Z,100446.66
2023-12-10T10:13:00.820Z,100460.66
2023-12-10T10:15:33.030Z,100441.22
2023-12-10T10:18:07.660Z,100451.53
2023-12-10T10:20:40.555Z,100437.19
2023-12-10T10:23:13.949Z,100443.66
2023-12-10T10:25:46.510Z,100438.50
2023-12-10T10:28:18.625Z,100431.94
2023-12-10T10:30:51.684Z,100423.59
2023-12-10T10:33:27.082Z,100432.63
2023-12-10T10:36:00.664Z,100437.22
2023-12-10T10:38:34.052Z,100438.97
2023-12-10T10:41:06.421Z,100444.41
2023-12-10T10:43:39.079Z,100456.13
2023-12-10T10:46:12.235Z,100446.69
2023-12-10T10:48:45.792Z,100461.56
2023-12-10T10:51:18.331Z,100452.41
2023-12-10T10:53:52.814Z,100454.88
2023-12-10T10:56:26.327Z,100457.34
2023-12-10T10:58:59.656Z,100442.59
2023-12-10T11:01:42.841Z,100428.63
2023-12-10T11:04:17.621Z,100444.66
2023-12-10T11:06:52.472Z,100437.31
2023-12-10T11:09:26.790Z,100432.69
2023-12-10T11:11:59.980Z,100430.66
2023-12-10T11:14:34.798Z,100435.66
2023-12-10T11:17:10.528Z,100434.63
2023-12-10T11:19:42.688Z,100424.31
2023-12-10T11:22:16.026Z,100414.03
2023-12-10T11:24:51.704Z,100410.56
2023-12-10T11:27:26.489Z,100409.53
2023-12-10T11:29:58.982Z,100416.09
2023-12-10T11:32:31.860Z,100417.03
2023-12-10T11:35:04.303Z,100411.44
2023-12-10T11:37:36.322Z,100412.72
2023-12-10T11:40:09.570Z,100415.53
2023-12-10T11:42:41.604Z,100395.28
2023-12-10T11:45:14.660Z,100397.94
2023-12-10T11:47:47.541Z,100396.06
2023-12-10T11:50:20.705Z,100403.44
2023-12-10T11:52:52.687Z,100389.72
2023-12-10T11:55:25.314Z,100400.75
2023-12-10T11:57:58.924Z,100393.25
2023-12-10T12:00:31.163Z,100387.56
2023-12-10T12:03:07.123Z,100394.19
2023-12-10T12:05:39.133Z,100391.25
2023-12-10T12:08:11.208Z,100392.03
2023-12-10T12:10:43.216Z,100394.59
2023-12-10T12:13:17.454Z,100405.84
2023-12-10T12:15:51.525Z,100400.47
2023-12-10T12:18:28.101Z,100387.22
2023-12-10T12:21:00.493Z,100396.94
2023-12-10T12:23:32.546Z,100388.13
2023-12-10T12:26:04.733Z,100389.94
2023-12-10T12:28:36.703Z,100386.41
2023-12-10T12:31:08.763Z,100368.00
2023-12-10T12:33:41.093Z,100354.81
2023-12-10T12:36:13.290Z,100356.50
2023-12-10T12:38:45.553Z,100363.44
2023-12-10T12:41:17.566Z,100344.97
2023-12-10T12:43:49.592Z,100342.31
2023-12-10T12:46:21.795Z,100345.84
2023-12-10T12:48:53.947Z,100340.56
2023-12-10T12:51:26.176Z,100356.38
2023-12-10T12:54:11.971Z,100354.59
2023-12-10T12:56:46.182Z,100340.41
2023-12-10T12:59:18.345Z,100335.25
2023-12-10T13:01:50.548Z,100338.75
2023-12-10T13:04:23.303Z,100338.72
2023-12-10T13:06:55.427Z,100343.94
2023-12-10T13:09:27.412Z,100345.72
2023-12-10T13:12:00.573Z,100341.38
2023-12-10T13:14:32.643Z,100335.25
2023-12-10T13:17:05.543Z,100328.16
2023-12-10T13:19:37.671Z,100331.72
2023-12-10T13:22:09.924Z,100355.34
2023-12-10T13:24:42.075Z,100351.88
2023-12-10T13:27:14.102Z,100356.25
2023-12-10T13:29:46.137Z,100349.06
2023-12-10T13:32:19.234Z,100346.50
2023-12-10T13:34:51.310Z,100352.72
2023-12-10T13:37:23.455Z,100342.09
2023-12-10T13:39:55.532Z,100336.94
2023-12-10T13:42:27.548Z,100337.72
2023-12-10T13:44:59.617Z,100337.72
2023-12-10T13:47:32.680Z,100321.91
2023-12-10T13:50:05.734Z,100324.56
2023-12-10T13:52:38.287Z,100316.66
2023-12-10T13:55:10.350Z,100313.03
2023-12-10T13:57:42.424Z,100314.09
2023-12-10T14:00:15.088Z,100303.50
2023-12-10T14:02:49.875Z,100299.94
2023-12-10T14:05:22.167Z,100292.84
2023-12-10T14:07:54.318Z,100280.50
2023-12-10T14:10:26.420Z,100277.91
2023-12-10T14:12:58.514Z,100284.16
2023-12-10T14:15:30.543Z,100267.34
2023-12-10T14:18:02.629Z,100251.59
2023-12-10T14:20:34.716Z,100263.09
2023-12-10T14:23:06.811Z,100242.00
2023-12-10T14:25:40.288Z,100242.81
2023-12-10T14:28:13.826Z,100236.69
2023-12-10T14:30:46.073Z,100245.53
2023-12-10T14:33:18.278Z,100220.91
2023-12-10T14:35:50.331Z,100223.59
2023-12-10T14:38:22.296Z,100191.75
2023-12-10T14:40:54.346Z,100224.47
2023-12-10T14:43:26.338Z,100220.91
2023-12-10T14:45:58.367Z,100226.16
2023-12-10T14:48:31.286Z,100227.00
2023-12-10T14:51:03.918Z,100219.13
2023-12-10T14:53:36.625Z,100217.25
2023-12-10T14:56:09.822Z,100205.56
2023-12-10T14:58:41.796Z,100218.88
2023-12-10T15:01:13.945Z,100205.56
2023-12-10T15:03:46.117Z,100180.09
2023-12-10T15:06:18.232Z,100184.47
2023-12-10T15:08:50.308Z,100179.16
2023-12-10T15:11:22.352Z,100176.56
2023-12-10T15:13:54.350Z,100184.38
2023-12-10T15:16:26.658Z,100177.28
2023-12-10T15:18:58.803Z,100163.25
2023-12-10T15:21:30.815Z,100157.94
2023-12-10T15:24:02.876Z,100132.59
2023-12-10T15:26:34.928Z,100118.56
2023-12-10T15:29:06.922Z,100097.47
2023-12-10T15:31:39.082Z,100123.66
2023-12-10T15:34:11.160Z,100128.69
2023-12-10T15:36:43.164Z,100106.16
2023-12-10T15:39:15.364Z,100090.31
2023-12-10T15:41:48.221Z,100104.34
2023-12-10T15:44:21.760Z,100063.97
2023-12-10T15:46:54.753Z,100073.50
2023-12-10T15:49:26.821Z,100074.38
2023-12-10T15:52:01.332Z,100050.56
2023-12-10T15:54:33.736Z,100054.19
2023-12-10T15:57:05.966Z,100055.13
2023-12-10T15:59:38.182Z,100057.72
2023-12-10T16:02:10.301Z,100057.72
2023-12-10T16:04:42.399Z,100055.81
2023-12-10T16:07:17.458Z,100042.69
2023-12-10T16:09:49.962Z,100015.50
2023-12-10T16:12:22.066Z,100010.16
2023-12-10T16:14:54.138Z,99986.44
2023-12-10T16:17:26.309Z,99981.19
2023-12-10T16:19:58.679Z,99966.25
2023-12-10T16:22:31.018Z,99961.81
2023-12-10T16:25:03.365Z,99970.56
2023-12-10T16:27:35.448Z,99951.25
2023-12-10T16:30:08.062Z,99939.78
2023-12-10T16:32:40.178Z,99924.81
2023-12-10T16:35:12.204Z,99911.59
2023-12-10T16:37:44.355Z,99894.94
2023-12-10T16:40:17.138Z,99881.81
2023-12-10T16:42:49.357Z,99867.81
2023-12-10T16:45:21.523Z,99866.00
2023-12-10T16:47:53.690Z,99859.72
2023-12-10T16:50:25.863Z,99841.22
2023-12-10T16:52:57.898Z,99842.09
2023-12-10T16:55:29.875Z,99840.38
2023-12-10T16:58:01.996Z,99837.75
2023-12-10T17:00:34.406Z,99818.41
2023-12-10T17:03:06.560Z,99819.22
2023-12-10T17:05:39.028Z,99781.22
2023-12-10T17:08:11.142Z,99803.34
2023-12-10T17:10:43.171Z,99786.66
2023-12-10T17:13:15.592Z,99780.53
2023-12-10T17:15:48.326Z,99770.81
2023-12-10T17:18:20.705Z,99762.00
2023-12-10T17:20:54.630Z,99754.00
2023-12-10T17:23:26.779Z,99745.22
2023-12-10T17:25:58.846Z,99755.69
2023-12-10T17:28:30.895Z,99748.66
2023-12-10T17:31:03.151Z,99727.56
2023-12-10T17:33:35.348Z,99696.72
2023-12-10T17:36:07.772Z,99702.91
2023-12-10T17:38:39.957Z,99680.22
2023-12-10T17:41:12.314Z,99658.31
2023-12-10T17:43:44.394Z,99685.28
2023-12-10T17:46:16.463Z,99727.25
2023-12-10T17:48:52.291Z,99710.59
2023-12-10T17:51:24.927Z,99672.19
2023-12-10T17:53:57.057Z,99660.75
2023-12-10T17:56:29.063Z,99673.84
2023-12-10T17:59:01.707Z,99679.94
2023-12-10T18:01:33.820Z,99657.19
2023-12-10T18:04:06.154Z,99671.22
2023-12-10T18:06:38.246Z,99654.59
2023-12-10T18:09:10.365Z,99640.59
2023-12-10T18:11:43.467Z,99648.47
2023-12-10T18:14:15.484Z,99646.75
2023-12-10T18:16:47.568Z,99633.63
2023-12-10T18:19:19.988Z,99639.81
2023-12-10T18:21:52.231Z,99647.63
2023-12-10T18:24:24.372Z,99654.69
2023-12-10T18:26:56.400Z,99660.03
2023-12-10T18:29:28.465Z,99644.31
2023-12-10T18:32:00.450Z,99639.91
2023-12-10T18:34:32.546Z,99644.31
2023-12-10T18:37:05.056Z,99652.19
2023-12-10T18:39:37.115Z,99657.47
2023-12-10T18:42:11.689Z,99634.75
2023-12-10T18:44:44.033Z,99627.81
2023-12-10T18:47:16.080Z,99624.38
2023-12-10T18:49:48.181Z,99630.56
2023-12-10T18:52:20.241Z,99641.97
2023-12-10T18:54:52.393Z,99633.28
2023-12-10T18:57:24.565Z,99623.69
2023-12-10T18:59:56.751Z,99623.81
2023-12-10T19:02:28.756Z,99636.13
2023-12-10T19:05:00.865Z,99637.06
2023-12-10T19:07:33.329Z,99638.03
2023-12-10T19:10:07.812Z,99638.13
2023-12-10T19:12:40.257Z,99639.03
2023-12-10T19:15:12.465Z,99632.09
2023-12-10T19:17:44.781Z,99632.22
2023-12-10T19:20:25.220Z,99633.16
2023-12-10T19:22:57.399Z,99641.09
2023-12-10T19:25:29.410Z,99635.94
2023-12-10T19:28:01.545Z,99621.09
2023-12-10T19:30:33.697Z,99630.75
2023-12-10T19:33:06.439Z,99636.03
2023-12-10T19:35:38.565Z,99635.22
2023-12-10T19:38:11.663Z,99630.91
2023-12-10T19:40:43.747Z,99630.06
2023-12-10T19:43:16.292Z,99646.75
2023-12-10T19:45:48.337Z,99634.41
2023-12-10T19:48:25.901Z,99645.97
2023-12-10T19:51:00.201Z,99640.75
2023-12-10T19:53:34.524Z,99644.28
2023-12-10T19:56:07.106Z,99646.97
2023-12-10T19:58:39.233Z,99656.66
2023-12-10T20:01:11.446Z,99651.44
2023-12-10T20:03:43.975Z,99669.00
2023-12-10T20:06:16.529Z,99661.13
2023-12-10T20:08:50.289Z,99665.53
2023-12-10T20:11:22.386Z,99672.59
2023-12-10T20:13:54.463Z,99670.00
2023-12-10T20:16:26.590Z,99666.56
2023-12-10T20:18:58.677Z,99652.50
2023-12-10T20:21:30.741Z,99662.19
2023-12-10T20:24:04.197Z,99667.44
2023-12-10T20:26:46.766Z,99664.81
2023-12-10T20:29:18.937Z,99661.31
2023-12-10T20:31:50.992Z,99659.63
2023-12-10T20:34:30.139Z,99666.66
2023-12-10T20:37:07.058Z,99664.00
2023-12-10T20:39:39.149Z,99671.91
2023-12-10T20:42:11.380Z,99663.94
2023-12-10T20:44:43.500Z,99681.59
2023-12-10T20:47:15.670Z,99686.00
2023-12-10T20:49:47.709Z,99682.47
2023-12-10T20:52:21.996Z,99692.16
2023-12-10T20:54:54.329Z,99695.63
2023-12-10T20:57:26.938Z,99696.53
2023-12-10T20:59:59.136Z,99707.03
2023-12-10T21:02:31.550Z,99700.91
2023-12-10T21:05:04.029Z,99700.00
2023-12-10T21:07:36.231Z,99716.66
2023-12-10T21:10:11.430Z,99709.66
2023-12-10T21:12:43.706Z,99725.41
2023-12-10T21:15:15.839Z,99726.28
2023-12-10T21:17:48.325Z,99727.13
2023-12-10T21:20:20.478Z,99725.34
2023-12-10T21:22:52.956Z,99711.22
2023-12-10T21:25:24.999Z,99720.94
2023-12-10T21:27:57.225Z,99719.13
2023-12-10T21:30:30.405Z,99726.09
2023-12-10T21:33:03.944Z,99735.84
2023-12-10T21:35:36.267Z,99729.66
2023-12-10T21:38:08.362Z,99734.03
2023-12-10T21:40:40.423Z,99739.28
2023-12-10T21:43:12.534Z,99735.75
2023-12-10T21:45:44.559Z,99733.06
2023-12-10T21:48:16.696Z,99735.69
2023-12-10T21:50:48.817Z,99740.94
2023-12-10T21:53:20.894Z,99750.63
2023-12-10T21:55:52.911Z,99752.31
2023-12-10T21:58:25.910Z,99753.16
2023-12-10T22:00:59.170Z,99764.56
2023-12-10T22:03:32.122Z,99769.03
2023-12-10T22:06:05.100Z,99777.78
2023-12-10T22:08:37.602Z,99771.66
2023-12-10T22:11:09.740Z,99766.44
2023-12-10T22:13:42.382Z,99778.66
2023-12-10T22:16:14.425Z,99769.03
2023-12-10T22:18:46.688Z,99777.78
2023-12-10T22:21:19.016Z,99780.44
2023-12-10T22:23:51.079Z,99772.50
2023-12-10T22:26:23.882Z,99776.06
2023-12-10T22:28:55.913Z,99784.00
2023-12-10T22:31:27.996Z,99769.88
2023-12-10T22:34:02.591Z,99789.19
2023-12-10T22:36:34.817Z,99784.88
2023-12-10T22:39:09.381Z,99784.91
2023-12-10T22:41:42.911Z,99789.25
2023-12-10T22:44:15.038Z,99786.63
2023-12-10T22:46:47.037Z,99783.97
2023-12-10T22:49:19.094Z,99783.09
2023-12-10T22:51:51.377Z,99787.47
2023-12-10T22:54:23.434Z,99792.72
2023-12-10T22:56:55.480Z,99809.31
2023-12-10T22:59:27.496Z,99797.94
2023-12-10T23:01:59.651Z,99801.38
2023-12-10T23:04:31.833Z,99797.88
2023-12-10T23:07:04.092Z,99808.41
2023-12-10T23:09:37.285Z,99808.38
2023-12-10T23:12:10.431Z,99809.28
2023-12-10T23:14:42.523Z,99802.22
2023-12-10T23:17:14.620Z,99815.41
2023-12-10T23:19:49.077Z,99804.91
2023-12-10T23:22:21.313Z,99804.91
2023-12-10T23:24:53.588Z,99810.16
2023-12-10T23:27:25.768Z,99813.63
2023-12-10T23:29:57.832Z,99806.59
2023-12-10T23:32:29.899Z,99815.34
2023-12-10T23:35:02.108Z,99810.97
2023-12-10T23:37:34.074Z,99815.34
2023-12-10T23:40:07.289Z,99810.91
2023-12-10T23:42:39.290Z,99817.91
2023-12-10T23:45:11.582Z,99807.34
2023-12-10T23:47:43.655Z,99815.25
2023-12-10T23:50:15.880Z,99817.00
2023-12-10T23:52:47.869Z,99808.22
2023-12-10T23:55:19.955Z,99806.44
2023-12-10T23:57:52.056Z,99797.63
